Time;durP1;ratioP1;P1;durP2;ratioP2;P2;SDS_P1;SDS_P2;PMS_P1;PMS_P2;Temp;Humidity;BMP_temperature;BMP_pressure;BME280_temperature;BME280_humidity;BME280_pressure;Samples;Min_cycle;Max_cycle;Signal;HPM_P1;HPM_P2
2022/01/16 00:04:11;;;;;;;;;;;1.00;96.60;;;;;;5021772;28;19955;-71
2022/01/16 00:06:37;;;;;;;;;;;1.00;96.90;;;;;;5022930;28;19948;-71
2022/01/16 00:09:04;;;;;;;;;;;1.00;96.90;;;;;;5001458;28;19910;-72
2022/01/16 00:11:29;;;;;;;;;;;1.10;96.80;;;;;;5003163;28;19953;-71
2022/01/16 00:13:55;;;;;;;;;;;1.00;97.00;;;;;;5003278;28;19909;-71
2022/01/16 00:16:21;;;;;;;;;;;1.00;97.20;;;;;;5003044;28;20140;-71
2022/01/16 00:18:49;;;;;;;;;;;1.00;97.30;;;;;;5002192;28;19985;-71
2022/01/16 00:21:19;;;;;;;;;;;0.90;97.40;;;;;;5003161;28;19913;-71
2022/01/16 00:23:45;;;;;;;;;;;0.90;97.60;;;;;;5001909;28;20117;-71
2022/01/16 00:26:11;;;;;;;;;;;0.90;98.00;;;;;;5001483;28;19909;-71
2022/01/16 00:28:36;;;;;;;;;;;0.90;97.80;;;;;;5008283;28;19933;-71
2022/01/16 00:31:02;;;;;;;;;;;0.90;97.70;;;;;;5022980;28;19909;-71
2022/01/16 00:33:27;;;;;;;;;;;1.00;97.80;;;;;;5022713;28;20136;-71
2022/01/16 00:35:53;;;;;;;;;;;0.90;98.20;;;;;;5022531;28;19917;-71
2022/01/16 00:38:19;;;;;;;;;;;0.90;98.00;;;;;;5022623;28;19925;-71
2022/01/16 00:40:45;;;;;;;;;;;1.00;98.10;;;;;;5022676;28;19940;-71
2022/01/16 00:43:10;;;;;;;;;;;0.90;98.10;;;;;;5021913;28;19910;-71
2022/01/16 00:45:36;;;;;;;;;;;1.00;98.20;;;;;;5022321;28;19976;-71
2022/01/16 00:48:05;;;;;;;;;;;0.90;98.20;;;;;;5022622;28;20068;-71
2022/01/16 00:50:31;;;;;;;;;;;0.90;98.30;;;;;;5021175;28;19910;-71
2022/01/16 00:52:57;;;;;;;;;;;0.90;98.40;;;;;;4988642;28;19921;-71
2022/01/16 00:55:22;;;;;;;;;;;1.00;98.30;;;;;;5020947;28;19932;-71
2022/01/16 00:57:48;;;;;;;;;;;1.10;98.20;;;;;;5022291;28;19916;-71
2022/01/16 01:00:14;;;;;;;;;;;1.10;98.10;;;;;;5022362;28;19917;-71
2022/01/16 01:02:39;;;;;;;;;;;1.10;98.10;;;;;;5022355;28;19910;-71
2022/01/16 01:05:07;;;;;;;;;;;1.10;98.10;;;;;;5020809;28;19973;-71
2022/01/16 01:07:33;;;;;;;;;;;1.10;98.20;;;;;;4988446;28;19939;-71
2022/01/16 01:09:58;;;;;;;;;;;1.20;98.30;;;;;;5022227;28;19952;-71
2022/01/16 01:12:29;;;;;;;;;;;1.10;98.30;;;;;;5021892;28;19917;-71
2022/01/16 01:15:08;;;;;;;;;;;1.20;98.40;;;;;;5021944;28;20270;-72
2022/01/16 01:17:42;;;;;;;;;;;1.20;98.40;;;;;;5021002;28;20221;-71
2022/01/16 01:20:09;;;;;;;;;;;1.10;98.50;;;;;;5022245;28;19971;-72
2022/01/16 01:22:34;;;;;;;;;;;1.00;98.80;;;;;;5021288;28;19924;-71
2022/01/16 01:25:00;;;;;;;;;;;1.10;98.80;;;;;;5021459;28;20204;-71
2022/01/16 01:27:30;;;;;;;;;;;1.20;98.80;;;;;;5022852;28;19969;-71
2022/01/16 01:30:03;;;;;;;;;;;1.20;98.80;;;;;;5022122;28;19915;-71
2022/01/16 01:32:30;;;;;;;;;;;1.20;98.70;;;;;;5021876;28;20008;-71
2022/01/16 01:34:56;;;;;;;;;;;1.20;98.80;;;;;;5022102;28;19909;-71
2022/01/16 01:37:22;;;;;;;;;;;1.20;98.90;;;;;;5022299;28;19972;-71
2022/01/16 01:39:47;;;;;;;;;;;1.10;98.90;;;;;;5023634;28;19948;-71
2022/01/16 01:42:14;;;;;;;;;;;1.20;99.00;;;;;;5023298;28;19909;-71
2022/01/16 01:52:55;;;;;;;;;;;1.10;99.30;;;;;;5022720;28;19944;-71
2022/01/16 01:55:22;;;;;;;;;;;1.10;99.40;;;;;;5021391;28;19909;-71
2022/01/16 01:57:48;;;;;;;;;;;1.00;99.50;;;;;;5022826;28;19909;-71
2022/01/16 02:00:17;;;;;;;;;;;1.00;99.60;;;;;;5021514;28;20283;-71
2022/01/16 02:03:11;;;;;;;;;;;1.00;99.70;;;;;;5005637;28;19909;-71
2022/01/16 02:05:37;;;;;;;;;;;1.00;99.70;;;;;;5021417;28;19924;-71
2022/01/16 02:08:03;;;;;;;;;;;0.90;99.90;;;;;;5022608;28;19909;-71
2022/01/16 02:10:29;;;;;;;;;;;0.90;99.90;;;;;;5021516;28;19960;-71
2022/01/16 02:13:00;;;;;;;;;;;0.90;99.90;;;;;;5022574;28;19913;-71
2022/01/16 02:28:00;;;;;;;;;;;0.90;99.90;;;;;;5021642;28;19916;-71
2022/01/16 02:31:42;;;;;;;;;;;0.90;99.90;;;;;;5021931;28;19977;-71
2022/01/16 02:36:56;;;;;;;;;;;1.00;99.90;;;;;;5043738;23;19929;-67
2022/01/16 02:39:24;;;;;;;;;;;0.90;99.90;;;;;;5006916;28;20244;-68
2022/01/16 02:41:52;;;;;;;;;;;1.00;99.90;;;;;;5001503;28;19916;-68
2022/01/16 02:46:44;;;;;;;;;;;1.00;99.90;;;;;;5016894;28;19925;-68
2022/01/16 02:49:22;;;;;;;;;;;1.00;99.90;;;;;;5005098;28;19910;-68
2022/01/16 02:51:50;;;;;;;;;;;1.00;99.90;;;;;;5006129;28;19977;-68
2022/01/16 02:54:16;;;;;;;;;;;1.00;99.90;;;;;;5004436;28;20383;-69
2022/01/16 02:56:43;;;;;;;;;;;1.00;99.90;;;;;;5004757;28;19960;-68
2022/01/16 02:59:12;;;;;;;;;;;1.00;99.90;;;;;;5005795;28;19922;-69
2022/01/16 03:01:38;;;;;;;;;;;1.10;99.90;;;;;;4988407;28;19917;-69
2022/01/16 03:04:04;;;;;;;;;;;1.10;99.90;;;;;;5004676;28;19976;-69
2022/01/16 03:06:30;;;;;;;;;;;1.00;99.90;;;;;;4994127;28;19910;-69
2022/01/16 03:08:56;;;;;;;;;;;0.90;99.90;;;;;;4996838;28;20160;-69
2022/01/16 03:13:49;;;;;;;;;;;0.90;99.90;;;;;;4986147;28;19910;-68
2022/01/16 03:16:19;;;;;;;;;;;1.00;99.90;;;;;;4968655;28;19937;-69
2022/01/16 03:24:13;;;;;;;;;;;1.10;99.90;;;;;;4985604;28;20108;-69
2022/01/16 03:26:39;;;;;;;;;;;1.00;99.90;;;;;;4985962;28;19910;-69
2022/01/16 03:29:04;;;;;;;;;;;1.00;99.90;;;;;;4985704;28;20188;-68
2022/01/16 03:31:30;;;;;;;;;;;0.90;99.90;;;;;;4984644;28;19942;-69
2022/01/16 03:33:56;;;;;;;;;;;0.90;99.90;;;;;;4984801;28;19917;-69
2022/01/16 03:36:22;;;;;;;;;;;0.90;99.90;;;;;;4985418;28;19981;-69
2022/01/16 03:38:47;;;;;;;;;;;0.90;99.90;;;;;;4995145;28;19921;-68
2022/01/16 03:41:13;;;;;;;;;;;0.90;99.90;;;;;;5004021;28;19948;-69
2022/01/16 03:43:39;;;;;;;;;;;0.90;99.90;;;;;;5004974;28;19917;-69
2022/01/16 03:46:04;;;;;;;;;;;0.90;99.90;;;;;;5004777;28;19941;-70
2022/01/16 03:48:30;;;;;;;;;;;0.90;99.90;;;;;;5004847;28;20016;-70
2022/01/16 03:50:56;;;;;;;;;;;0.90;99.90;;;;;;5004037;28;19933;-70
2022/01/16 03:53:22;;;;;;;;;;;0.90;99.90;;;;;;5005082;28;20117;-70
2022/01/16 03:55:48;;;;;;;;;;;0.90;99.90;;;;;;5019460;28;19957;-70
2022/01/16 03:58:14;;;;;;;;;;;0.90;99.90;;;;;;4985952;28;20605;-70
2022/01/16 04:00:40;;;;;;;;;;;1.00;99.90;;;;;;4987617;28;19914;-71
2022/01/16 04:03:05;;;;;;;;;;;1.00;99.90;;;;;;5004837;28;20115;-71
2022/01/16 04:05:31;;;;;;;;;;;0.90;99.90;;;;;;5003399;28;19940;-71
2022/01/16 04:07:59;;;;;;;;;;;0.90;99.90;;;;;;5004638;28;19917;-71
2022/01/16 04:10:25;;;;;;;;;;;0.90;99.90;;;;;;5003104;28;20112;-70
2022/01/16 04:12:51;;;;;;;;;;;1.00;99.90;;;;;;4986328;28;19910;-71
2022/01/16 04:17:44;;;;;;;;;;;1.00;99.90;;;;;;5003333;28;20259;-71
2022/01/16 04:20:10;;;;;;;;;;;0.90;99.90;;;;;;5003454;28;19925;-71
2022/01/16 04:22:36;;;;;;;;;;;1.00;99.90;;;;;;5003281;28;19941;-71
2022/01/16 04:25:01;;;;;;;;;;;1.00;99.90;;;;;;5003909;28;19918;-71
2022/01/16 04:27:27;;;;;;;;;;;1.00;99.90;;;;;;5019279;28;19953;-71
2022/01/16 04:29:53;;;;;;;;;;;1.00;99.90;;;;;;5004311;28;19910;-71
2022/01/16 04:32:18;;;;;;;;;;;1.00;99.90;;;;;;5003691;28;19981;-70
2022/01/16 04:34:44;;;;;;;;;;;0.90;99.90;;;;;;5003886;28;19917;-71
2022/01/16 04:37:10;;;;;;;;;;;1.00;99.90;;;;;;5003927;28;19988;-70
2022/01/16 04:39:37;;;;;;;;;;;1.00;99.90;;;;;;5003207;28;20140;-70
2022/01/16 04:44:49;;;;;;;;;;;1.00;99.90;;;;;;4989131;28;19956;-72
2022/01/16 04:47:15;;;;;;;;;;;1.00;99.90;;;;;;5003920;28;19910;-71
2022/01/16 04:49:41;;;;;;;;;;;0.90;99.90;;;;;;5002756;28;19910;-71
2022/01/16 04:52:07;;;;;;;;;;;0.90;99.90;;;;;;5003825;28;20260;-71
2022/01/16 04:54:33;;;;;;;;;;;0.90;99.90;;;;;;5002365;28;19910;-71
2022/01/16 04:56:58;;;;;;;;;;;0.80;99.90;;;;;;5003408;28;19921;-71
2022/01/16 04:59:24;;;;;;;;;;;0.80;99.90;;;;;;5003603;28;19909;-71
2022/01/16 05:01:51;;;;;;;;;;;0.90;99.90;;;;;;5018811;28;19909;-71
2022/01/16 05:04:16;;;;;;;;;;;0.90;99.90;;;;;;5003409;28;19917;-71
2022/01/16 05:06:42;;;;;;;;;;;0.90;99.90;;;;;;5003006;28;20348;-71
2022/01/16 05:09:08;;;;;;;;;;;0.90;99.90;;;;;;5002674;28;20109;-71
2022/01/16 05:11:33;;;;;;;;;;;1.00;99.90;;;;;;5003227;28;19909;-71
2022/01/16 05:16:37;;;;;;;;;;;1.00;99.90;;;;;;5002075;28;20204;-71
2022/01/16 05:19:10;;;;;;;;;;;1.00;99.80;;;;;;5003322;28;19909;-71
2022/01/16 05:21:37;;;;;;;;;;;1.00;99.80;;;;;;4986226;28;19989;-71
2022/01/16 05:24:06;;;;;;;;;;;1.00;99.40;;;;;;5003203;28;19910;-71
2022/01/16 05:26:34;;;;;;;;;;;0.90;99.50;;;;;;4985965;28;20145;-71
2022/01/16 05:28:59;;;;;;;;;;;0.80;99.80;;;;;;4986025;28;19918;-71
2022/01/16 05:31:25;;;;;;;;;;;0.80;99.90;;;;;;5002003;28;19977;-71
2022/01/16 05:33:51;;;;;;;;;;;0.70;99.70;;;;;;5003078;28;20020;-71
2022/01/16 05:36:19;;;;;;;;;;;0.80;99.70;;;;;;4985513;28;19968;-71
2022/01/16 05:38:45;;;;;;;;;;;0.80;99.60;;;;;;4985832;28;19914;-71
2022/01/16 05:41:10;;;;;;;;;;;0.70;99.50;;;;;;5003088;28;19910;-71
2022/01/16 05:43:36;;;;;;;;;;;0.70;99.50;;;;;;5002988;28;19968;-71
2022/01/16 05:46:02;;;;;;;;;;;0.70;99.60;;;;;;5002729;28;19929;-71
2022/01/16 05:48:27;;;;;;;;;;;0.70;99.50;;;;;;5002834;28;20113;-71
2022/01/16 05:50:54;;;;;;;;;;;0.80;99.30;;;;;;5002871;28;19997;-72
2022/01/16 05:53:19;;;;;;;;;;;0.80;99.00;;;;;;5001905;28;20129;-72
2022/01/16 05:55:45;;;;;;;;;;;0.80;99.00;;;;;;5002472;28;19917;-72
2022/01/16 05:58:11;;;;;;;;;;;0.70;99.00;;;;;;5001658;28;19917;-72
2022/01/16 06:00:37;;;;;;;;;;;0.80;99.00;;;;;;5002949;28;19918;-71
2022/01/16 06:03:03;;;;;;;;;;;0.70;99.10;;;;;;4985601;28;19916;-72
2022/01/16 06:05:29;;;;;;;;;;;0.70;99.10;;;;;;5002591;28;20177;-72
2022/01/16 06:08:07;;;;;;;;;;;0.70;99.10;;;;;;5002696;28;19910;-71
2022/01/16 06:10:32;;;;;;;;;;;0.70;99.20;;;;;;4987016;28;20239;-72
2022/01/16 06:12:58;;;;;;;;;;;0.60;99.40;;;;;;5001621;28;19984;-72
2022/01/16 06:15:24;;;;;;;;;;;0.60;99.50;;;;;;4985215;28;19910;-72
2022/01/16 06:17:50;;;;;;;;;;;0.60;99.50;;;;;;5002583;28;19922;-71
2022/01/16 06:20:15;;;;;;;;;;;0.70;99.60;;;;;;5002942;28;19909;-72
2022/01/16 06:22:42;;;;;;;;;;;0.70;99.60;;;;;;5005547;28;19917;-71
2022/01/16 06:25:08;;;;;;;;;;;0.70;99.60;;;;;;5006022;28;19910;-72
2022/01/16 06:27:34;;;;;;;;;;;0.80;99.40;;;;;;5006413;28;19910;-72
2022/01/16 06:29:59;;;;;;;;;;;0.80;99.20;;;;;;5005379;28;19917;-72
2022/01/16 06:32:25;;;;;;;;;;;0.80;99.10;;;;;;4973011;28;19926;-72
2022/01/16 06:34:51;;;;;;;;;;;0.80;99.20;;;;;;4987660;28;20363;-72
2022/01/16 06:37:16;;;;;;;;;;;0.80;99.40;;;;;;5006141;28;19926;-71
2022/01/16 06:39:42;;;;;;;;;;;0.80;99.40;;;;;;5005260;28;19910;-71
2022/01/16 06:42:08;;;;;;;;;;;0.80;99.50;;;;;;5005650;28;19914;-72
2022/01/16 06:44:33;;;;;;;;;;;0.80;99.40;;;;;;5006056;28;19909;-72
2022/01/16 06:46:59;;;;;;;;;;;0.80;99.50;;;;;;5005005;28;20160;-72
2022/01/16 06:49:25;;;;;;;;;;;0.80;99.50;;;;;;5004865;28;19945;-72
2022/01/16 06:51:51;;;;;;;;;;;0.80;99.50;;;;;;5006026;28;19909;-72
2022/01/16 06:54:17;;;;;;;;;;;0.70;99.50;;;;;;5004677;28;19909;-71
2022/01/16 06:56:43;;;;;;;;;;;0.80;99.40;;;;;;5005904;28;19914;-71
2022/01/16 06:59:08;;;;;;;;;;;0.80;99.10;;;;;;5005983;28;19910;-72
2022/01/16 07:01:34;;;;;;;;;;;0.80;99.30;;;;;;5005890;28;20102;-71
2022/01/16 07:04:00;;;;;;;;;;;0.80;99.30;;;;;;5005818;28;19910;-71
2022/01/16 07:06:26;;;;;;;;;;;0.80;99.30;;;;;;5005610;28;19910;-71
2022/01/16 07:08:51;;;;;;;;;;;0.70;99.30;;;;;;5005239;28;20213;-71
2022/01/16 07:11:17;;;;;;;;;;;0.70;99.40;;;;;;5004705;28;19910;-71
2022/01/16 07:13:43;;;;;;;;;;;0.80;99.20;;;;;;5004656;28;19933;-71
2022/01/16 07:16:09;;;;;;;;;;;0.80;99.10;;;;;;5005291;28;20243;-72
2022/01/16 07:18:34;;;;;;;;;;;0.80;99.20;;;;;;5004407;28;19913;-71
2022/01/16 07:21:00;;;;;;;;;;;0.70;99.20;;;;;;5005343;28;20167;-72
2022/01/16 07:23:26;;;;;;;;;;;0.70;99.10;;;;;;5005552;28;19910;-71
2022/01/16 07:25:52;;;;;;;;;;;0.70;99.10;;;;;;5004049;28;20212;-72
2022/01/16 07:28:19;;;;;;;;;;;0.70;99.10;;;;;;5020668;28;19933;-71
2022/01/16 07:30:45;;;;;;;;;;;0.60;98.90;;;;;;5004239;28;19925;-72
2022/01/16 07:33:11;;;;;;;;;;;0.60;98.90;;;;;;5004451;28;20236;-72
2022/01/16 07:35:36;;;;;;;;;;;0.60;99.00;;;;;;5003630;28;20113;-67
2022/01/16 07:38:03;;;;;;;;;;;0.70;99.00;;;;;;5002691;28;19953;-67
2022/01/16 07:40:29;;;;;;;;;;;0.70;98.90;;;;;;5002998;28;19910;-67
2022/01/16 07:42:54;;;;;;;;;;;0.70;98.90;;;;;;5003959;28;19956;-67
2022/01/16 07:45:20;;;;;;;;;;;0.70;99.00;;;;;;5003966;28;19918;-67
2022/01/16 07:47:46;;;;;;;;;;;0.70;98.90;;;;;;5004223;28;19924;-67
2022/01/16 07:50:12;;;;;;;;;;;0.70;98.80;;;;;;5004174;28;20097;-66
2022/01/16 07:52:38;;;;;;;;;;;0.70;98.50;;;;;;4986778;28;19944;-66
2022/01/16 07:55:04;;;;;;;;;;;0.80;98.40;;;;;;5003691;28;19925;-67
2022/01/16 07:57:29;;;;;;;;;;;0.80;98.40;;;;;;5003619;28;19985;-67
2022/01/16 07:59:55;;;;;;;;;;;0.80;98.50;;;;;;5003829;28;19918;-67
2022/01/16 08:02:21;;;;;;;;;;;0.80;98.40;;;;;;5004176;28;19947;-66
2022/01/16 08:04:46;;;;;;;;;;;0.80;98.40;;;;;;5004038;28;19918;-67
2022/01/16 08:07:12;;;;;;;;;;;0.80;98.40;;;;;;5002899;28;20120;-66
2022/01/16 08:09:38;;;;;;;;;;;0.80;98.30;;;;;;5003401;28;19910;-67
2022/01/16 08:12:05;;;;;;;;;;;0.80;98.10;;;;;;5002693;28;20248;-67
2022/01/16 08:14:30;;;;;;;;;;;0.80;98.10;;;;;;5001830;28;19936;-66
2022/01/16 08:16:56;;;;;;;;;;;0.90;98.10;;;;;;5002753;28;19969;-67
2022/01/16 08:19:23;;;;;;;;;;;0.90;97.90;;;;;;5002660;28;19918;-67
2022/01/16 08:21:48;;;;;;;;;;;0.90;98.00;;;;;;5001870;28;19968;-66
2022/01/16 08:24:14;;;;;;;;;;;1.00;97.90;;;;;;5002796;28;20213;-67
2022/01/16 08:26:40;;;;;;;;;;;1.10;97.90;;;;;;5002988;28;20212;-67
2022/01/16 08:29:05;;;;;;;;;;;1.10;97.50;;;;;;5001774;28;19917;-67
2022/01/16 08:31:31;;;;;;;;;;;1.20;97.60;;;;;;4982874;28;19933;-67
2022/01/16 08:33:57;;;;;;;;;;;1.30;97.30;;;;;;4982166;28;20299;-67
2022/01/16 08:36:22;;;;;;;;;;;1.30;97.10;;;;;;4995270;28;19937;-68
2022/01/16 08:38:48;;;;;;;;;;;1.30;97.20;;;;;;5002671;28;19914;-68
2022/01/16 08:41:14;;;;;;;;;;;1.30;97.20;;;;;;5002818;28;19921;-67
2022/01/16 08:43:39;;;;;;;;;;;1.30;97.20;;;;;;5001418;28;19960;-68
2022/01/16 08:46:05;;;;;;;;;;;1.30;97.00;;;;;;5002431;28;20216;-67
2022/01/16 08:48:31;;;;;;;;;;;1.20;97.00;;;;;;5001506;28;20079;-68
2022/01/16 08:50:56;;;;;;;;;;;1.20;97.20;;;;;;5002232;28;19918;-68
2022/01/16 08:53:22;;;;;;;;;;;1.20;97.20;;;;;;5001137;28;19937;-69
2022/01/16 08:55:48;;;;;;;;;;;1.20;97.30;;;;;;5002048;28;19918;-68
2022/01/16 08:58:13;;;;;;;;;;;1.20;97.20;;;;;;5002165;28;19929;-68
2022/01/16 09:00:43;;;;;;;;;;;1.20;97.00;;;;;;5002710;28;19914;-68
2022/01/16 09:03:09;;;;;;;;;;;1.20;97.10;;;;;;5000815;28;19910;-68
2022/01/16 09:05:35;;;;;;;;;;;1.20;96.90;;;;;;4997158;28;19910;-67
2022/01/16 09:08:00;;;;;;;;;;;1.20;97.00;;;;;;4982761;28;20252;-68
2022/01/16 09:10:26;;;;;;;;;;;1.20;97.00;;;;;;5013969;28;19921;-67
2022/01/16 09:12:53;;;;;;;;;;;1.10;97.10;;;;;;5002472;28;19958;-68
2022/01/16 09:15:19;;;;;;;;;;;1.10;97.10;;;;;;5000880;28;20255;-67
2022/01/16 09:17:44;;;;;;;;;;;1.10;97.20;;;;;;5000829;28;19937;-68
2022/01/16 09:20:13;;;;;;;;;;;1.10;97.40;;;;;;5001796;28;20066;-68
2022/01/16 09:22:40;;;;;;;;;;;1.20;97.40;;;;;;5000373;28;19910;-67
2022/01/16 09:25:06;;;;;;;;;;;1.20;97.30;;;;;;4999881;28;20332;-66
2022/01/16 09:27:33;;;;;;;;;;;1.10;97.30;;;;;;4984155;28;20154;-67
2022/01/16 09:29:59;;;;;;;;;;;1.20;97.40;;;;;;5001629;28;19984;-67
2022/01/16 09:32:25;;;;;;;;;;;1.20;97.40;;;;;;5000803;28;19910;-67
2022/01/16 09:34:51;;;;;;;;;;;1.20;97.40;;;;;;5001816;28;20064;-67
2022/01/16 09:37:17;;;;;;;;;;;1.20;97.50;;;;;;5000501;28;20009;-69
2022/01/16 09:39:43;;;;;;;;;;;1.20;97.50;;;;;;5000547;28;19917;-68
2022/01/16 09:42:08;;;;;;;;;;;1.20;97.20;;;;;;5001674;28;19909;-70
2022/01/16 09:44:36;;;;;;;;;;;1.20;97.10;;;;;;4980299;28;19941;-69
2022/01/16 09:47:02;;;;;;;;;;;1.20;97.00;;;;;;4982180;28;20013;-69
2022/01/16 09:49:28;;;;;;;;;;;1.20;97.10;;;;;;5001559;28;20219;-70
2022/01/16 09:51:54;;;;;;;;;;;1.20;97.10;;;;;;5000116;28;20247;-70
2022/01/16 09:54:20;;;;;;;;;;;1.20;97.20;;;;;;4982826;28;20173;-70
2022/01/16 09:56:46;;;;;;;;;;;1.10;97.00;;;;;;4999412;28;19952;-70
2022/01/16 09:59:12;;;;;;;;;;;1.10;97.10;;;;;;5001366;28;19914;-70
2022/01/16 10:01:37;;;;;;;;;;;1.10;97.00;;;;;;5000503;28;19928;-70
2022/01/16 10:04:03;;;;;;;;;;;1.00;97.20;;;;;;5001652;28;19953;-69
2022/01/16 10:06:29;;;;;;;;;;;1.10;97.00;;;;;;4999895;28;20064;-70
2022/01/16 10:08:55;;;;;;;;;;;0.90;97.00;;;;;;4983003;28;19913;-70
2022/01/16 10:11:21;;;;;;;;;;;1.00;97.10;;;;;;4998429;28;20137;-70
2022/01/16 10:13:56;;;;;;;;;;;1.00;97.30;;;;;;5000634;28;19949;-71
2022/01/16 10:16:36;;;;;;;;;;;0.90;97.20;;;;;;4998776;28;19930;-70
2022/01/16 10:19:01;;;;;;;;;;;0.80;97.20;;;;;;4999144;28;19980;-70
2022/01/16 10:21:37;;;;;;;;;;;0.90;97.10;;;;;;4998889;28;19925;-71
2022/01/16 10:24:15;;;;;;;;;;;0.90;97.10;;;;;;4999191;28;20024;-71
2022/01/16 10:26:42;;;;;;;;;;;0.90;97.10;;;;;;5000351;28;19925;-70
2022/01/16 10:29:07;;;;;;;;;;;0.90;97.10;;;;;;4999174;28;20074;-70
2022/01/16 10:31:33;;;;;;;;;;;1.00;97.20;;;;;;4982074;28;19976;-71
2022/01/16 10:33:59;;;;;;;;;;;0.90;97.00;;;;;;5000045;28;19910;-71
2022/01/16 10:36:35;;;;;;;;;;;1.00;97.20;;;;;;4996817;28;20085;-70
2022/01/16 10:39:08;;;;;;;;;;;1.00;97.10;;;;;;4999215;28;19913;-71
2022/01/16 10:41:34;;;;;;;;;;;1.00;97.00;;;;;;4999941;28;20304;-71
2022/01/16 10:44:00;;;;;;;;;;;1.00;97.00;;;;;;4996004;28;19914;-71
2022/01/16 10:46:26;;;;;;;;;;;1.00;97.00;;;;;;4981576;28;20034;-71
2022/01/16 10:49:14;;;;;;;;;;;1.10;97.10;;;;;;4997297;28;19926;-71
2022/01/16 10:51:40;;;;;;;;;;;1.00;97.00;;;;;;4981184;28;19921;-70
2022/01/16 10:54:28;;;;;;;;;;;1.00;97.00;;;;;;4996163;28;19984;-71
2022/01/16 10:56:54;;;;;;;;;;;1.00;97.00;;;;;;5000792;28;20043;-71
2022/01/16 10:59:23;;;;;;;;;;;0.90;97.20;;;;;;5001039;28;19918;-71
2022/01/16 11:02:08;;;;;;;;;;;0.90;97.50;;;;;;4983535;28;19910;-71
2022/01/16 11:04:34;;;;;;;;;;;0.80;97.40;;;;;;4999401;28;19929;-72
2022/01/16 11:07:03;;;;;;;;;;;0.80;97.80;;;;;;5001510;28;19984;-71
2022/01/16 11:09:30;;;;;;;;;;;0.70;97.90;;;;;;5002998;28;19913;-72
2022/01/16 11:12:05;;;;;;;;;;;0.70;98.40;;;;;;5003190;28;19909;-71
2022/01/16 11:14:32;;;;;;;;;;;0.60;98.30;;;;;;4987247;28;20364;-71
2022/01/16 11:16:58;;;;;;;;;;;0.60;98.60;;;;;;4986641;28;19925;-72
2022/01/16 11:19:25;;;;;;;;;;;0.50;98.50;;;;;;5004357;28;19917;-72
2022/01/16 11:21:54;;;;;;;;;;;0.50;98.70;;;;;;5004709;28;19922;-72
2022/01/16 11:24:36;;;;;;;;;;;0.50;98.90;;;;;;5002895;28;19977;-72
2022/01/16 11:27:01;;;;;;;;;;;0.50;98.80;;;;;;5002716;28;19953;-72
2022/01/16 11:29:28;;;;;;;;;;;0.50;99.00;;;;;;5003695;28;19914;-72
2022/01/16 11:31:56;;;;;;;;;;;0.50;99.00;;;;;;5002774;28;19910;-72
2022/01/16 11:34:21;;;;;;;;;;;0.50;99.10;;;;;;5002388;28;19925;-72
2022/01/16 11:36:47;;;;;;;;;;;0.50;99.20;;;;;;5003746;28;19953;-72
2022/01/16 11:39:13;;;;;;;;;;;0.50;98.60;;;;;;5003187;28;20230;-72
2022/01/16 11:41:51;;;;;;;;;;;0.50;98.90;;;;;;5004093;28;19936;-71
2022/01/16 11:44:37;;;;;;;;;;;0.50;98.80;;;;;;5002310;28;19921;-72
2022/01/16 11:47:03;;;;;;;;;;;0.40;98.60;;;;;;5003872;28;19946;-71
2022/01/16 11:49:42;;;;;;;;;;;0.50;98.40;;;;;;5002837;28;19976;-72
2022/01/16 11:52:18;;;;;;;;;;;0.50;98.40;;;;;;5002890;28;19910;-72
2022/01/16 11:54:50;;;;;;;;;;;0.50;98.10;;;;;;4986342;28;20069;-72
2022/01/16 11:57:23;;;;;;;;;;;0.50;98.00;;;;;;5002717;28;19941;-72
2022/01/16 12:00:11;;;;;;;;;;;0.50;97.90;;;;;;4982246;28;20109;-71
2022/01/16 12:02:38;;;;;;;;;;;0.50;98.10;;;;;;4982997;28;19918;-72
2022/01/16 12:05:04;;;;;;;;;;;0.50;98.30;;;;;;4982707;28;19910;-72
2022/01/16 12:07:50;;;;;;;;;;;0.50;98.40;;;;;;4993981;28;19910;-72
2022/01/16 12:10:35;;;;;;;;;;;0.60;97.90;;;;;;5002164;28;19918;-72
2022/01/16 12:13:01;;;;;;;;;;;0.60;97.80;;;;;;5002475;28;19909;-72
2022/01/16 12:15:28;;;;;;;;;;;0.70;97.70;;;;;;5003174;28;19933;-72
2022/01/16 12:17:54;;;;;;;;;;;0.70;97.10;;;;;;5002813;28;19964;-72
2022/01/16 12:20:25;;;;;;;;;;;0.70;96.80;;;;;;4985956;28;19981;-72
2022/01/16 12:22:58;;;;;;;;;;;0.70;97.00;;;;;;5002047;28;19909;-72
2022/01/16 12:25:28;;;;;;;;;;;0.70;97.00;;;;;;5001765;28;19909;-73
2022/01/16 12:28:01;;;;;;;;;;;0.70;97.00;;;;;;4997522;28;20162;-73
2022/01/16 12:30:36;;;;;;;;;;;0.80;97.10;;;;;;4982501;28;19918;-73
2022/01/16 12:33:23;;;;;;;;;;;0.80;97.10;;;;;;4982374;28;20133;-73
2022/01/16 12:35:54;;;;;;;;;;;0.90;96.80;;;;;;4983536;28;20158;-73
2022/01/16 12:39:08;;;;;;;;;;;0.90;96.90;;;;;;4997634;28;19918;-73
2022/01/16 12:41:42;;;;;;;;;;;0.90;97.00;;;;;;4964789;28;19910;-72
2022/01/16 12:44:10;;;;;;;;;;;0.90;97.20;;;;;;4977994;28;19957;-72
2022/01/16 12:46:56;;;;;;;;;;;0.90;97.10;;;;;;4986193;28;20069;-72
2022/01/16 12:49:23;;;;;;;;;;;1.00;97.30;;;;;;5002987;28;19959;-72
2022/01/16 12:51:50;;;;;;;;;;;1.00;97.10;;;;;;4969695;28;19910;-72
2022/01/16 12:54:17;;;;;;;;;;;1.00;97.10;;;;;;5001774;28;20004;-72
2022/01/16 12:56:47;;;;;;;;;;;1.00;97.20;;;;;;4985613;28;19914;-72
2022/01/16 12:59:22;;;;;;;;;;;1.00;97.10;;;;;;5003742;28;19910;-71
2022/01/16 13:01:53;;;;;;;;;;;0.90;97.20;;;;;;5002151;28;19909;-72
2022/01/16 13:04:26;;;;;;;;;;;0.90;97.00;;;;;;4986133;28;19910;-72
2022/01/16 13:06:56;;;;;;;;;;;0.80;97.20;;;;;;5001955;28;20066;-72
2022/01/16 13:09:22;;;;;;;;;;;0.80;97.30;;;;;;5003350;28;19929;-72
2022/01/16 13:11:52;;;;;;;;;;;0.90;97.30;;;;;;4998902;28;19932;-72
2022/01/16 13:14:25;;;;;;;;;;;1.00;97.00;;;;;;5000593;28;19953;-72
2022/01/16 13:16:56;;;;;;;;;;;1.00;97.10;;;;;;4998689;28;19926;-72
2022/01/16 13:19:26;;;;;;;;;;;1.00;97.00;;;;;;4983725;28;19976;-71
2022/01/16 13:22:11;;;;;;;;;;;1.00;96.80;;;;;;4982500;28;19922;-72
2022/01/16 13:24:47;;;;;;;;;;;1.00;96.60;;;;;;4975059;28;19925;-72
2022/01/16 13:27:15;;;;;;;;;;;1.00;96.70;;;;;;4982398;28;19910;-72
2022/01/16 13:29:48;;;;;;;;;;;0.90;96.90;;;;;;4981636;28;19911;-72
2022/01/16 13:32:16;;;;;;;;;;;0.90;96.80;;;;;;4982331;28;19917;-72
2022/01/16 13:34:55;;;;;;;;;;;1.00;96.90;;;;;;4965987;28;19910;-72
2022/01/16 13:37:32;;;;;;;;;;;0.90;96.90;;;;;;4982805;28;20162;-72
2022/01/16 13:40:10;;;;;;;;;;;1.00;96.90;;;;;;4981941;28;19930;-71
2022/01/16 13:45:35;;;;;;;;;;;0.90;97.20;;;;;;5001088;28;19954;-71
2022/01/16 13:48:10;;;;;;;;;;;1.00;97.00;;;;;;5002132;28;19917;-71
2022/01/16 13:50:50;;;;;;;;;;;1.00;97.00;;;;;;5000988;28;20407;-71
2022/01/16 13:53:17;;;;;;;;;;;0.90;97.10;;;;;;5000747;28;19944;-71
2022/01/16 13:55:57;;;;;;;;;;;1.00;97.30;;;;;;4984264;28;19988;-72
2022/01/16 13:58:24;;;;;;;;;;;1.00;97.30;;;;;;5000269;28;19909;-75
2022/01/16 14:00:50;;;;;;;;;;;1.30;98.00;;;;;;5000323;28;19910;-71
2022/01/16 14:03:18;;;;;;;;;;;1.40;97.70;;;;;;5001650;28;19928;-68
2022/01/16 14:05:49;;;;;;;;;;;1.50;97.20;;;;;;5000548;28;19932;-74
2022/01/16 14:08:36;;;;;;;;;;;1.50;96.30;;;;;;4984517;28;19941;-75
2022/01/16 14:11:15;;;;;;;;;;;1.40;96.20;;;;;;4985711;28;19972;-74
2022/01/16 14:13:57;;;;;;;;;;;1.30;96.40;;;;;;4981149;28;19929;-74
2022/01/16 14:16:46;;;;;;;;;;;1.20;96.70;;;;;;4977764;28;19930;-73
2022/01/16 14:19:15;;;;;;;;;;;1.10;96.80;;;;;;4986268;28;19918;-74
2022/01/16 14:22:03;;;;;;;;;;;1.10;96.90;;;;;;4969095;28;19960;-74
2022/01/16 14:24:34;;;;;;;;;;;1.10;97.00;;;;;;4996893;28;20209;-75
2022/01/16 14:27:19;;;;;;;;;;;1.10;97.20;;;;;;4999611;28;19917;-75
2022/01/16 14:29:46;;;;;;;;;;;1.10;97.30;;;;;;5001002;28;20108;-74
2022/01/16 14:32:12;;;;;;;;;;;1.10;97.40;;;;;;4999654;28;19960;-74
2022/01/16 14:34:39;;;;;;;;;;;1.00;97.60;;;;;;4999404;28;19977;-74
2022/01/16 14:37:05;;;;;;;;;;;1.10;97.80;;;;;;4999496;28;19918;-74
2022/01/16 14:39:31;;;;;;;;;;;1.00;98.00;;;;;;5000923;28;19913;-75
2022/01/16 14:41:58;;;;;;;;;;;1.00;98.20;;;;;;4998372;28;19941;-74
2022/01/16 14:44:26;;;;;;;;;;;0.90;98.30;;;;;;5001833;28;19945;-74
2022/01/16 14:46:52;;;;;;;;;;;1.00;98.20;;;;;;5003457;28;19921;-74
2022/01/16 14:49:18;;;;;;;;;;;0.90;98.30;;;;;;4987229;28;19910;-74
2022/01/16 14:51:44;;;;;;;;;;;0.90;98.40;;;;;;5003234;28;19920;-74
2022/01/16 14:54:09;;;;;;;;;;;1.00;98.10;;;;;;5003185;28;19967;-74
2022/01/16 14:56:35;;;;;;;;;;;1.00;98.00;;;;;;5003104;28;19945;-75
2022/01/16 14:59:01;;;;;;;;;;;1.00;98.10;;;;;;5002746;28;20259;-74
2022/01/16 15:01:26;;;;;;;;;;;1.00;98.40;;;;;;5002127;28;19922;-77
2022/01/16 15:03:52;;;;;;;;;;;1.00;98.10;;;;;;4986365;28;19933;-77
2022/01/16 15:06:35;;;;;;;;;;;1.00;98.20;;;;;;5003188;28;20076;-77
2022/01/16 15:09:02;;;;;;;;;;;1.10;98.30;;;;;;5004515;28;19929;-76
2022/01/16 15:11:29;;;;;;;;;;;1.00;98.40;;;;;;5004355;28;19953;-75
2022/01/16 15:13:56;;;;;;;;;;;1.00;98.50;;;;;;5002691;28;20000;-75
2022/01/16 15:16:25;;;;;;;;;;;1.00;98.60;;;;;;4983209;28;19933;-75
2022/01/16 15:18:57;;;;;;;;;;;1.00;98.50;;;;;;4986841;28;19948;-75
2022/01/16 15:21:31;;;;;;;;;;;1.00;98.50;;;;;;4985998;28;19985;-77
2022/01/16 15:23:57;;;;;;;;;;;1.00;98.50;;;;;;5002862;28;19918;-77
2022/01/16 15:26:24;;;;;;;;;;;1.00;98.50;;;;;;5003263;28;19944;-77